Time;durP1;ratioP1;P1;durP2;ratioP2;P2;SDS_P1;SDS_P2;PMS_P1;PMS_P2;Temp;Humidity;BMP_temperature;BMP_pressure;BME280_temperature;BME280_humidity;BME280_pressure;Samples;Min_cycle;Max_cycle;Signal;HPM_P1;HPM_P2
2020/12/16 00:00:50;;;;;;;37.25;21.50;;;;;;;4.52;100.00;101478.84;5055574;28;20045;-79
2020/12/16 00:03:16;;;;;;;40.75;19.73;;;;;;;4.56;100.00;101475.34;5066305;28;20033;-79
2020/12/16 00:05:41;;;;;;;41.08;20.35;;;;;;;4.39;100.00;101480.72;5055579;28;20625;-79
2020/12/16 00:08:06;;;;;;;41.40;20.10;;;;;;;4.31;100.00;101475.53;5049197;28;20056;-79
2020/12/16 00:10:32;;;;;;;45.65;20.75;;;;;;;4.44;100.00;101484.19;5055424;28;20029;-80
2020/12/16 00:12:57;;;;;;;41.60;19.95;;;;;;;4.40;100.00;101475.47;5056414;28;20078;-79
2020/12/16 00:15:22;;;;;;;41.90;23.23;;;;;;;4.53;100.00;101476.25;5056768;28;20031;-80
2020/12/16 00:17:49;;;;;;;43.42;21.40;;;;;;;4.42;100.00;101478.09;5060216;28;20029;-79
2020/12/16 00:20:14;;;;;;;41.60;22.85;;;;;;;4.63;100.00;101477.88;5073974;28;20429;-79
2020/12/16 00:22:41;;;;;;;42.90;23.38;;;;;;;4.61;100.00;101479.63;5068978;28;20032;-80
2020/12/16 00:25:08;;;;;;;49.13;24.13;;;;;;;4.64;100.00;101478.75;5057342;28;20542;-79
2020/12/16 00:27:34;;;;;;;45.40;22.98;;;;;;;4.65;100.00;101478.72;5075378;28;20107;-78
2020/12/16 00:29:59;;;;;;;49.60;23.83;;;;;;;4.67;100.00;101471.75;5055513;28;20022;-76
2020/12/16 00:32:25;;;;;;;49.20;23.30;;;;;;;4.66;100.00;101475.22;5060615;28;20036;-77
2020/12/16 00:34:51;;;;;;;38.65;22.27;;;;;;;4.72;100.00;101482.19;5058720;28;20477;-78
2020/12/16 00:37:16;;;;;;;45.17;23.58;;;;;;;4.74;100.00;101475.16;5054492;28;20033;-78
2020/12/16 00:39:41;;;;;;;44.33;24.90;;;;;;;4.87;100.00;101482.03;5058777;28;20028;-77
2020/12/16 00:42:07;;;;;;;59.53;24.05;;;;;;;4.74;100.00;101484.78;5050085;28;20676;-78
2020/12/16 00:44:33;;;;;;;43.30;24.33;;;;;;;4.76;100.00;101489.09;5056202;28;20056;-78
2020/12/16 00:46:59;;;;;;;44.08;25.45;;;;;;;4.77;100.00;101492.56;5053865;28;20101;-77
2020/12/16 00:49:24;;;;;;;43.22;24.25;;;;;;;4.71;100.00;101490.88;5055659;28;20075;-77
2020/12/16 00:51:51;;;;;;;48.40;25.58;;;;;;;4.80;100.00;101492.56;5059058;28;20630;-77
2020/12/16 00:54:16;;;;;;;42.95;25.58;;;;;;;4.81;100.00;101492.53;5054173;28;20025;-77
2020/12/16 00:56:43;;;;;;;46.03;25.25;;;;;;;4.74;100.00;101485.63;5044046;28;20031;-77
2020/12/16 00:59:08;;;;;;;41.15;24.77;;;;;;;4.76;100.00;101488.22;5053013;28;20408;-78
2020/12/16 01:01:34;;;;;;;48.13;24.55;;;;;;;4.71;100.00;101490.88;5053357;28;20027;-77
2020/12/16 01:03:59;;;;;;;39.78;24.63;;;;;;;4.73;100.00;101488.28;5036542;28;20029;-77
2020/12/16 01:06:24;;;;;;;43.47;24.77;;;;;;;4.70;100.00;101483.94;5058166;28;20657;-77
2020/12/16 01:08:49;;;;;;;37.53;23.92;;;;;;;4.62;100.00;101486.63;5039954;28;20048;-77
2020/12/16 01:11:15;;;;;;;44.78;25.75;;;;;;;4.59;100.00;101489.28;5059335;28;20038;-77
2020/12/16 01:13:40;;;;;;;43.10;24.80;;;;;;;4.71;100.00;101495.25;5056622;28;20026;-77
2020/12/16 01:16:05;;;;;;;47.15;25.15;;;;;;;4.71;100.00;101505.75;5061114;28;20036;-77
2020/12/16 01:18:30;;;;;;;45.53;25.52;;;;;;;4.68;100.00;101506.66;5054213;28;20025;-78
2020/12/16 01:20:56;;;;;;;41.78;25.38;;;;;;;4.71;100.00;101511.84;5045326;28;20075;-77
2020/12/16 01:23:21;;;;;;;46.30;26.42;;;;;;;4.77;100.00;101511.81;5055264;28;20115;-77
2020/12/16 01:25:46;;;;;;;46.33;26.77;;;;;;;4.77;100.00;101509.19;5053343;28;20028;-77
2020/12/16 01:28:11;;;;;;;37.72;23.98;;;;;;;4.59;100.00;101515.44;5035080;28;20024;-77
2020/12/16 01:30:37;;;;;;;45.05;24.70;;;;;;;4.65;100.00;101506.66;5058651;28;20047;-78
2020/12/16 01:33:02;;;;;;;39.05;24.50;;;;;;;4.72;100.00;101512.72;5040099;28;20086;-77
2020/12/16 01:35:27;;;;;;;40.72;25.10;;;;;;;4.76;100.00;101509.19;5062496;28;20120;-78
2020/12/16 01:37:54;;;;;;;41.30;26.08;;;;;;;4.67;100.00;101507.53;5059712;28;20417;-78
2020/12/16 01:40:20;;;;;;;44.38;26.17;;;;;;;4.70;100.00;101511.88;5057351;28;20025;-77
2020/12/16 01:42:45;;;;;;;45.47;25.52;;;;;;;4.57;100.00;101514.63;5058692;28;20033;-78
2020/12/16 01:45:14;;;;;;;40.50;25.85;;;;;;;4.59;100.00;101520.69;5041474;28;20537;-78
2020/12/16 01:47:41;;;;;;;39.22;25.90;;;;;;;4.63;100.00;101529.38;5059146;28;20035;-77
2020/12/16 01:50:07;;;;;;;44.35;27.42;;;;;;;4.70;100.00;101517.09;5059186;28;20055;-77
2020/12/16 01:52:34;;;;;;;45.95;26.88;;;;;;;4.67;100.00;101512.78;5044804;28;20086;-78
2020/12/16 01:55:00;;;;;;;45.17;27.27;;;;;;;4.68;100.00;101511.88;5040165;28;20035;-77
2020/12/16 01:57:26;;;;;;;46.00;27.83;;;;;;;4.76;100.00;101515.28;5059194;28;20103;-77
2020/12/16 01:59:52;;;;;;;42.53;26.52;;;;;;;4.74;100.00;101513.56;5055386;28;20438;-77
2020/12/16 02:02:19;;;;;;;44.72;27.95;;;;;;;4.78;100.00;101513.53;5042524;28;20115;-77
2020/12/16 02:04:46;;;;;;;42.35;26.30;;;;;;;4.74;100.00;101511.81;5056462;28;20029;-77
2020/12/16 02:07:14;;;;;;;45.85;29.30;;;;;;;4.84;100.00;101508.22;5060873;28;20024;-77
2020/12/16 02:09:41;;;;;;;41.58;26.25;;;;;;;4.75;100.00;101497.84;5063289;28;20047;-77
2020/12/16 02:12:13;;;;;;;53.83;27.92;;;;;;;4.76;100.00;101491.72;5040211;28;20123;-77
2020/12/16 02:14:39;;;;;;;42.72;26.75;;;;;;;4.77;100.00;101490.84;5058543;28;20057;-77
2020/12/16 02:17:06;;;;;;;50.95;27.83;;;;;;;4.76;100.00;101496.94;5060897;28;20495;-77
2020/12/16 02:19:39;;;;;;;41.60;27.58;;;;;;;4.74;100.00;101505.72;5057585;28;20021;-77
2020/12/16 02:22:04;;;;;;;38.33;26.40;;;;;;;4.63;100.00;101506.69;5052232;28;20181;-77
2020/12/16 02:24:31;;;;;;;44.50;26.50;;;;;;;4.66;100.00;101504.03;5060462;28;20610;-77
2020/12/16 02:26:56;;;;;;;38.70;26.42;;;;;;;4.62;100.00;101502.34;5037373;28;20512;-77
2020/12/16 02:29:24;;;;;;;43.35;27.77;;;;;;;4.68;100.00;101509.28;5061697;28;20048;-78
2020/12/16 02:31:53;;;;;;;44.25;28.58;;;;;;;4.70;100.00;101511.88;5055101;28;20052;-77
2020/12/16 02:34:18;;;;;;;43.35;29.60;;;;;;;4.70;100.00;101510.09;5069260;28;20500;-77
2020/12/16 02:36:44;;;;;;;47.40;27.95;;;;;;;4.68;100.00;101510.13;5054236;28;20032;-77
2020/12/16 02:39:09;;;;;;;42.28;28.10;;;;;;;4.53;100.00;101520.75;5049196;28;20071;-77
2020/12/16 02:41:34;;;;;;;43.83;26.88;;;;;;;4.55;100.00;101521.59;5059824;28;20021;-77
2020/12/16 02:43:59;;;;;;;41.58;28.65;;;;;;;4.56;100.00;101517.22;5050740;28;20036;-77
2020/12/16 02:46:25;;;;;;;45.33;27.95;;;;;;;4.54;100.00;101519.00;5048819;28;20397;-77
2020/12/16 02:48:50;;;;;;;45.28;27.67;;;;;;;4.55;100.00;101520.72;5057507;28;20038;-77
2020/12/16 02:51:15;;;;;;;42.40;26.35;;;;;;;4.49;100.00;101518.16;5052439;28;20063;-77
2020/12/16 02:53:41;;;;;;;46.78;29.20;;;;;;;4.53;100.00;101520.75;5057179;28;20116;-77
2020/12/16 02:56:06;;;;;;;48.17;29.88;;;;;;;4.53;100.00;101519.88;5053543;28;20051;-77
2020/12/16 02:58:31;;;;;;;50.50;28.52;;;;;;;4.53;100.00;101514.66;5052607;28;20029;-77
2020/12/16 03:06:47;;;;;;;54.45;32.60;;;;;;;4.59;100.00;101519.81;5059696;28;20029;-77
2020/12/16 03:09:13;;;;;;;63.33;32.13;;;;;;;4.55;100.00;101534.69;5039093;28;20048;-77
2020/12/16 03:11:39;;;;;;;57.42;31.95;;;;;;;4.55;100.00;101531.19;5057384;28;20032;-78
2020/12/16 03:14:04;;;;;;;84.80;36.80;;;;;;;4.60;100.00;101538.13;5040786;28;20154;-77
2020/12/16 03:16:29;;;;;;;86.40;36.88;;;;;;;4.62;100.00;101527.66;5061088;28;20039;-77
2020/12/16 03:18:54;;;;;;;79.32;36.70;;;;;;;4.60;100.00;101524.16;5056239;28;20083;-77
2020/12/16 03:21:24;;;;;;;109.60;36.42;;;;;;;4.62;100.00;101522.44;5036310;28;20572;-76
2020/12/16 03:23:51;;;;;;;118.22;37.90;;;;;;;4.59;100.00;101525.94;5035490;28;20036;-76
2020/12/16 03:26:17;;;;;;;145.07;38.28;;;;;;;4.59;100.00;101520.69;5058415;28;20029;-77
2020/12/16 03:28:43;;;;;;;179.98;39.00;;;;;;;4.56;100.00;101532.94;5053882;28;20473;-79
2020/12/16 03:31:10;;;;;;;152.75;38.63;;;;;;;4.58;100.00;101532.06;5064587;28;20033;-78
2020/12/16 03:33:36;;;;;;;138.73;36.65;;;;;;;4.59;100.00;101528.53;5035160;28;20044;-78
2020/12/16 03:36:01;;;;;;;133.23;34.30;;;;;;;4.56;100.00;101530.31;5072446;28;20074;-79
2020/12/16 03:38:27;;;;;;;177.85;33.17;;;;;;;4.48;100.00;101524.28;5056518;28;20161;-78
2020/12/16 03:40:52;;;;;;;197.65;34.60;;;;;;;4.47;100.00;101533.91;5054752;28;20469;-78
2020/12/16 03:43:17;;;;;;;194.93;34.92;;;;;;;4.45;100.00;101526.91;5059069;28;20032;-79
2020/12/16 03:45:42;;;;;;;153.38;33.67;;;;;;;4.44;100.00;101526.06;5053674;28;20389;-77
2020/12/16 03:48:08;;;;;;;202.88;35.80;;;;;;;4.40;100.00;101521.72;5053334;28;20055;-78
2020/12/16 03:50:33;;;;;;;131.63;31.95;;;;;;;4.43;100.00;101524.31;5057689;28;20032;-78
2020/12/16 03:52:58;;;;;;;170.43;36.45;;;;;;;4.42;100.00;101530.44;5057857;28;20047;-79
2020/12/16 03:55:23;;;;;;;167.27;32.40;;;;;;;4.34;100.00;101525.25;5055126;28;20048;-78
2020/12/16 03:57:49;;;;;;;141.68;30.95;;;;;;;4.33;100.00;101518.28;5041246;28;20401;-78
2020/12/16 04:00:14;;;;;;;170.65;34.03;;;;;;;4.38;100.00;101528.72;5052875;28;20060;-78
2020/12/16 04:02:39;;;;;;;142.45;31.38;;;;;;;4.35;100.00;101519.13;5053131;28;20403;-79
2020/12/16 04:05:05;;;;;;;88.93;29.20;;;;;;;4.35;100.00;101523.50;5056943;28;20032;-78
2020/12/16 04:07:31;;;;;;;142.40;31.70;;;;;;;4.35;100.00;101519.13;5029883;28;20094;-78
2020/12/16 04:09:58;;;;;;;98.72;28.00;;;;;;;4.32;100.00;101521.81;5040096;28;20032;-78
2020/12/16 04:12:23;;;;;;;90.30;25.40;;;;;;;4.35;100.00;101520.88;5056298;28;20024;-78
2020/12/16 04:14:48;;;;;;;101.15;26.60;;;;;;;4.31;100.00;101525.28;5053141;28;20025;-78
2020/12/16 04:17:14;;;;;;;149.13;29.92;;;;;;;4.33;100.00;101526.16;5056335;28;20041;-77
2020/12/16 04:19:39;;;;;;;74.38;25.67;;;;;;;4.38;100.00;101528.72;5052350;28;20070;-77
2020/12/16 04:22:04;;;;;;;84.28;26.33;;;;;;;4.37;100.00;101522.63;5059706;28;20043;-78
2020/12/16 04:24:29;;;;;;;79.65;26.25;;;;;;;4.33;100.00;101517.44;5055326;28;20029;-78
2020/12/16 04:26:55;;;;;;;95.10;25.83;;;;;;;4.33;100.00;101520.91;5022578;28;20033;-80
2020/12/16 04:29:20;;;;;;;99.85;29.10;;;;;;;4.31;100.00;101527.03;5057761;28;20060;-77
2020/12/16 04:31:53;;;;;;;104.30;27.45;;;;;;;4.33;100.00;101523.53;5041371;28;20025;-78
2020/12/16 04:34:19;;;;;;;120.22;26.90;;;;;;;4.29;100.00;101534.91;5052138;28;20390;-77
2020/12/16 04:36:47;;;;;;;89.80;26.92;;;;;;;4.30;100.00;101531.38;5053668;28;20115;-78
2020/12/16 04:39:12;;;;;;;106.07;26.90;;;;;;;4.32;100.00;101536.63;5053054;28;20401;-78
2020/12/16 04:41:37;;;;;;;131.43;28.50;;;;;;;4.30;100.00;101539.25;5053643;28;20032;-78
2020/12/16 04:44:05;;;;;;;92.95;26.02;;;;;;;4.34;100.00;101538.34;5054431;28;20037;-78
2020/12/16 04:46:31;;;;;;;83.57;27.25;;;;;;;4.38;100.00;101537.44;5056456;28;20116;-78
2020/12/16 04:48:57;;;;;;;97.72;26.80;;;;;;;4.36;100.00;101531.34;5052148;28;20029;-79
2020/12/16 04:51:24;;;;;;;97.35;27.00;;;;;;;4.35;100.00;101532.22;5057580;28;20028;-78
2020/12/16 04:53:53;;;;;;;75.40;24.85;;;;;;;4.35;100.00;101537.47;5052566;28;20393;-78
2020/12/16 04:56:19;;;;;;;115.88;27.10;;;;;;;4.37;100.00;101537.47;5051720;28;20037;-78
2020/12/16 04:58:45;;;;;;;79.85;25.50;;;;;;;4.43;100.00;101532.19;5052037;28;20028;-78
2020/12/16 05:01:10;;;;;;;94.82;27.15;;;;;;;4.41;100.00;101537.41;5035995;28;20033;-78
2020/12/16 05:03:35;;;;;;;107.05;24.77;;;;;;;4.41;100.00;101534.78;5053116;28;20024;-78
2020/12/16 05:06:01;;;;;;;94.40;26.08;;;;;;;4.42;100.00;101535.69;5046144;28;20337;-78
2020/12/16 05:08:27;;;;;;;82.18;21.45;;;;;;;4.42;100.00;101540.91;5055189;28;20465;-78
2020/12/16 05:10:52;;;;;;;88.07;24.52;;;;;;;4.41;100.00;101540.03;5062047;28;20120;-79
2020/12/16 05:13:20;;;;;;;93.45;24.30;;;;;;;4.45;100.00;101540.88;5058025;28;20045;-78
2020/12/16 05:15:47;;;;;;;74.78;22.70;;;;;;;4.51;100.00;101539.94;5050992;28;20028;-78
2020/12/16 05:18:17;;;;;;;109.13;26.38;;;;;;;4.49;100.00;101537.34;5037627;28;20060;-79
2020/12/16 05:20:47;;;;;;;121.65;25.45;;;;;;;4.55;100.00;101545.16;5039495;28;20032;-79
2020/12/16 05:23:12;;;;;;;73.05;22.48;;;;;;;4.56;100.00;101540.78;5056089;28;20102;-79
2020/12/16 05:25:38;;;;;;;98.88;25.77;;;;;;;4.58;100.00;101536.41;5056358;28;20063;-79
2020/12/16 05:28:06;;;;;;;110.78;26.42;;;;;;;4.59;100.00;101531.16;5060191;28;20064;-79
2020/12/16 05:30:33;;;;;;;75.03;24.85;;;;;;;4.63;100.00;101529.38;5054795;28;20167;-79
2020/12/16 05:33:01;;;;;;;77.07;26.42;;;;;;;4.65;100.00;101543.31;5073227;28;20405;-79
2020/12/16 05:35:29;;;;;;;97.05;26.17;;;;;;;4.70;100.00;101532.81;5054937;28;20064;-79
2020/12/16 05:38:07;;;;;;;77.88;26.63;;;;;;;4.71;100.00;101540.66;5052862;28;20016;-79
2020/12/16 05:40:35;;;;;;;79.78;25.00;;;;;;;4.73;100.00;101524.94;5052970;28;20048;-79
2020/12/16 05:43:01;;;;;;;74.07;24.17;;;;;;;4.75;100.00;101529.25;5057117;28;20025;-79
2020/12/16 05:45:29;;;;;;;78.75;28.02;;;;;;;4.77;100.00;101537.09;5057258;28;20079;-79
2020/12/16 05:48:00;;;;;;;78.97;22.45;;;;;;;4.77;100.00;101527.53;5059790;28;20021;-78
2020/12/16 05:50:32;;;;;;;125.70;28.35;;;;;;;4.76;100.00;101528.38;5058579;28;20036;-79
2020/12/16 05:53:12;;;;;;;83.95;23.38;;;;;;;4.82;100.00;101532.69;5035510;28;20025;-79
2020/12/16 05:55:38;;;;;;;85.78;25.58;;;;;;;4.82;100.00;101535.31;5054228;28;20158;-79
2020/12/16 05:58:19;;;;;;;94.05;26.02;;;;;;;4.85;100.00;101530.06;5058983;28;20112;-78
2020/12/16 06:00:48;;;;;;;89.30;23.92;;;;;;;4.84;100.00;101525.69;5068130;28;20025;-79
2020/12/16 06:03:23;;;;;;;108.50;27.20;;;;;;;4.82;100.00;101525.72;5059621;28;20051;-78
2020/12/16 06:05:55;;;;;;;105.38;26.00;;;;;;;4.89;100.00;101535.25;5054705;28;20630;-78
2020/12/16 06:08:22;;;;;;;84.10;24.52;;;;;;;4.87;100.00;101531.78;5059199;28;20069;-79
2020/12/16 06:10:49;;;;;;;69.80;23.55;;;;;;;4.93;100.00;101530.84;5059406;28;20025;-79
2020/12/16 06:13:16;;;;;;;90.53;26.17;;;;;;;4.93;100.00;101534.34;5069820;28;20025;-79
2020/12/16 06:15:53;;;;;;;77.57;26.58;;;;;;;4.96;100.00;101522.06;5056104;28;20477;-78
2020/12/16 06:18:21;;;;;;;92.18;25.85;;;;;;;4.93;100.00;101538.72;5054080;28;20682;-80
2020/12/16 06:20:46;;;;;;;111.63;26.80;;;;;;;4.89;100.00;101532.63;5048162;28;20023;-79
2020/12/16 06:23:23;;;;;;;102.43;27.75;;;;;;;4.95;100.00;101536.94;5038356;28;20029;-79
2020/12/16 06:25:50;;;;;;;63.38;24.60;;;;;;;4.99;100.00;101538.63;5056858;28;20060;-79
2020/12/16 06:28:16;;;;;;;87.03;25.25;;;;;;;4.95;100.00;101539.56;5055066;28;20666;-79
2020/12/16 06:30:50;;;;;;;101.38;26.88;;;;;;;4.96;100.00;101532.56;5057778;28;20032;-79
2020/12/16 06:33:32;;;;;;;89.20;24.75;;;;;;;4.99;100.00;101535.16;5055075;28;20478;-79
2020/12/16 06:36:01;;;;;;;95.90;23.20;;;;;;;4.98;100.00;101536.91;5052062;28;20051;-79
2020/12/16 06:38:26;;;;;;;91.72;24.45;;;;;;;4.93;100.00;101538.72;5048784;28;20115;-79
2020/12/16 06:40:55;;;;;;;87.78;26.17;;;;;;;4.97;100.00;101535.19;5048372;28;20143;-77
2020/12/16 06:43:34;;;;;;;84.47;24.23;;;;;;;4.92;100.00;101537.84;5050834;28;20521;-80
2020/12/16 06:46:02;;;;;;;68.63;22.15;;;;;;;4.92;100.00;101531.75;5054587;28;20125;-78
2020/12/16 06:48:37;;;;;;;77.20;26.23;;;;;;;4.92;100.00;101534.38;5059655;28;20056;-78
2020/12/16 06:51:20;;;;;;;95.00;25.42;;;;;;;4.95;100.00;101542.16;5053604;28;20119;-79
2020/12/16 06:53:47;;;;;;;82.05;26.90;;;;;;;4.97;100.00;101540.41;5066431;28;20039;-79
2020/12/16 06:56:18;;;;;;;89.38;25.25;;;;;;;4.93;100.00;101542.19;5052136;28;20545;-79
2020/12/16 06:58:43;;;;;;;81.25;25.98;;;;;;;4.92;100.00;101542.22;5054969;28;20039;-79
2020/12/16 07:01:12;;;;;;;68.47;24.10;;;;;;;4.94;100.00;101543.06;5040804;28;20037;-80
2020/12/16 07:03:37;;;;;;;66.15;24.80;;;;;;;4.91;100.00;101537.84;5044894;28;20024;-79
2020/12/16 07:06:03;;;;;;;66.07;24.10;;;;;;;4.94;100.00;101546.53;5035925;28;20393;-79
2020/12/16 07:08:29;;;;;;;65.38;23.60;;;;;;;5.00;100.00;101547.38;5046888;28;20057;-79
2020/12/16 07:10:55;;;;;;;73.40;25.40;;;;;;;4.96;100.00;101543.91;5044101;28;20060;-79
2020/12/16 07:13:25;;;;;;;67.80;24.92;;;;;;;4.94;100.00;101551.78;5038639;28;20036;-79
2020/12/16 07:15:57;;;;;;;72.20;24.25;;;;;;;5.01;100.00;101551.72;5030724;28;20512;-78
2020/12/16 07:18:25;;;;;;;72.43;26.13;;;;;;;4.98;100.00;101550.00;5057829;28;20035;-79
2020/12/16 07:20:57;;;;;;;59.70;23.13;;;;;;;4.91;100.00;101551.81;5045424;28;20021;-79
2020/12/16 07:23:23;;;;;;;64.90;22.65;;;;;;;4.90;100.00;101542.22;5059727;28;20036;-79
2020/12/16 07:25:48;;;;;;;73.72;25.27;;;;;;;4.89;100.00;101539.63;5041188;28;20068;-79
2020/12/16 07:28:14;;;;;;;65.10;23.02;;;;;;;4.88;100.00;101546.59;5048255;28;20119;-77
2020/12/16 07:30:54;;;;;;;79.45;25.88;;;;;;;4.91;100.00;101553.56;5047419;28;20082;-78
2020/12/16 07:33:19;;;;;;;77.28;26.25;;;;;;;4.94;100.00;101553.53;5048404;28;20036;-78
2020/12/16 07:35:47;;;;;;;60.03;24.52;;;;;;;4.94;100.00;101554.41;5051429;28;20052;-78
2020/12/16 07:38:13;;;;;;;68.35;24.88;;;;;;;4.91;100.00;101548.31;5049180;28;20116;-78
2020/12/16 07:40:38;;;;;;;63.42;25.80;;;;;;;4.98;100.00;101551.75;5050641;28;20031;-78
2020/12/16 07:43:05;;;;;;;64.90;26.55;;;;;;;4.96;100.00;101554.38;5032203;28;20032;-78
2020/12/16 07:45:30;;;;;;;59.22;26.67;;;;;;;4.98;100.00;101546.53;5068638;28;20985;-78
2020/12/16 07:47:56;;;;;;;64.03;26.77;;;;;;;5.03;100.00;101556.06;5053189;28;20108;-78
2020/12/16 07:50:21;;;;;;;62.80;26.35;;;;;;;5.06;100.00;101547.28;5053360;28;20079;-77
2020/12/16 07:52:54;;;;;;;64.55;26.33;;;;;;;5.04;100.00;101546.47;5053197;28;20028;-77
2020/12/16 07:55:26;;;;;;;60.50;25.77;;;;;;;5.09;100.00;101549.91;5048848;28;20075;-77
2020/12/16 07:57:51;;;;;;;61.92;25.23;;;;;;;5.05;100.00;101550.81;5049694;28;20040;-76
2020/12/16 08:00:24;;;;;;;56.03;26.02;;;;;;;5.06;100.00;101555.16;5037763;28;20017;-77
2020/12/16 08:02:51;;;;;;;62.50;25.55;;;;;;;5.02;100.00;101548.19;5041968;28;20374;-77
2020/12/16 08:05:17;;;;;;;62.03;26.25;;;;;;;5.07;100.00;101557.78;5048177;28;20045;-77
2020/12/16 08:07:42;;;;;;;59.60;27.95;;;;;;;5.10;100.00;101554.25;5052472;28;20029;-77
2020/12/16 08:10:08;;;;;;;64.32;27.25;;;;;;;5.08;100.00;101556.88;5050286;28;20104;-78
2020/12/16 08:12:38;;;;;;;66.07;27.17;;;;;;;5.05;100.00;101553.44;5056327;28;20504;-78
2020/12/16 08:15:17;;;;;;;63.63;28.80;;;;;;;5.07;100.00;101562.13;5048636;28;20025;-78
2020/12/16 08:17:45;;;;;;;59.28;27.88;;;;;;;5.02;100.00;101562.19;5064660;28;20538;-78
2020/12/16 08:20:14;;;;;;;55.97;26.38;;;;;;;5.01;100.00;101556.97;5053775;28;20017;-78
2020/12/16 08:22:41;;;;;;;55.42;27.33;;;;;;;4.99;100.00;101556.13;5047834;28;20572;-78
2020/12/16 08:25:10;;;;;;;60.80;25.45;;;;;;;4.93;100.00;101550.06;5047243;28;20040;-78
2020/12/16 08:27:43;;;;;;;51.08;25.45;;;;;;;4.93;100.00;101554.44;5025306;28;20017;-78
2020/12/16 08:30:11;;;;;;;52.30;26.38;;;;;;;4.96;100.00;101551.75;5035911;28;20440;-78
2020/12/16 08:32:51;;;;;;;50.53;24.50;;;;;;;4.94;100.00;101545.69;5050825;28;20021;-77
2020/12/16 08:35:20;;;;;;;49.80;24.48;;;;;;;4.98;100.00;101546.53;5049971;28;20020;-78
2020/12/16 08:37:49;;;;;;;48.60;24.17;;;;;;;4.97;100.00;101553.53;5050843;28;20040;-77
2020/12/16 08:40:18;;;;;;;49.17;25.65;;;;;;;4.96;100.00;101549.13;5038842;28;20123;-77
2020/12/16 08:42:44;;;;;;;55.38;24.50;;;;;;;4.93;100.00;101549.19;5066451;28;20033;-79
2020/12/16 08:45:10;;;;;;;46.85;23.45;;;;;;;4.86;100.00;101558.84;5053016;28;20023;-78
2020/12/16 08:47:36;;;;;;;46.55;24.63;;;;;;;4.88;100.00;101556.22;5059476;28;20025;-77
2020/12/16 08:50:06;;;;;;;46.50;23.42;;;;;;;4.90;100.00;101568.41;5056527;28;20024;-77
2020/12/16 08:52:43;;;;;;;51.55;23.50;;;;;;;4.99;100.00;101559.59;5057467;28;20049;-78
2020/12/16 08:55:19;;;;;;;47.28;24.38;;;;;;;5.03;100.00;101549.97;5070420;28;20421;-78
2020/12/16 08:57:48;;;;;;;;;;;;;;;5.02;100.00;101543.84;5048883;28;20036;-77
2020/12/16 09:00:14;;;;;;;40.28;21.67;;;;;;;5.20;100.00;101538.41;5050062;28;19920;-77
2020/12/16 09:02:39;;;;;;;42.20;22.90;;;;;;;5.40;100.00;101537.31;5054381;28;21429;-78
2020/12/16 09:05:04;;;;;;;48.42;24.60;;;;;;;5.60;100.00;101548.41;5058186;28;20036;-78
2020/12/16 09:07:30;;;;;;;43.28;23.55;;;;;;;7.10;95.83;101558.38;5057645;28;20077;-77
2020/12/16 09:09:55;;;;;;;42.70;23.13;;;;;;;7.74;91.35;101557.09;5059673;28;20392;-77
2020/12/16 09:12:22;;;;;;;32.70;21.02;;;;;;;8.24;89.12;101555.09;5040786;28;20563;-78
2020/12/16 09:14:54;;;;;;;28.70;17.83;;;;;;;7.70;90.00;101548.41;5049831;28;20159;-78
2020/12/16 09:17:23;;;;;;;29.92;17.88;;;;;;;7.86;90.19;101555.97;5039692;28;20041;-77
2020/12/16 09:19:49;;;;;;;26.25;16.10;;;;;;;8.08;89.27;101567.72;5055184;28;20056;-77
2020/12/16 09:22:14;;;;;;;20.52;14.43;;;;;;;8.21;88.85;101565.69;5053665;28;20067;-77
2020/12/16 09:24:40;;;;;;;24.85;15.75;;;;;;;8.63;87.70;101563.81;5054471;28;20110;-77
2020/12/16 09:27:07;;;;;;;23.02;13.90;;;;;;;8.55;87.23;101560.53;5043877;28;20030;-79
2020/12/16 09:29:32;;;;;;;25.42;14.93;;;;;;;8.56;88.05;101559.63;5041619;28;20033;-80
2020/12/16 09:32:18;;;;;;;19.90;13.95;;;;;;;8.80;87.06;101564.28;5044522;28;20562;-80
2020/12/16 09:34:46;;;;;;;26.17;14.98;;;;;;;8.66;86.79;101573.44;5064808;28;20021;-80
2020/12/16 09:37:15;;;;;;;19.27;13.02;;;;;;;8.60;87.15;101581.50;5061508;28;20024;-79
2020/12/16 09:39:41;;;;;;;21.90;13.27;;;;;;;8.60;87.15;101576.22;5047833;28;20432;-80
2020/12/16 09:42:10;;;;;;;21.50;12.93;;;;;;;9.15;85.30;101565.13;5049671;28;20102;-79
2020/12/16 09:44:35;;;;;;;23.17;13.18;;;;;;;9.65;84.57;101562.00;5061898;28;20025;-79
2020/12/16 09:47:16;;;;;;;18.58;12.35;;;;;;;9.54;83.86;101562.31;5043331;28;20035;-80
2020/12/16 09:49:44;;;;;;;19.00;11.68;;;;;;;9.10;85.68;101556.47;5050894;28;20147;-80
2020/12/16 09:52:25;;;;;;;20.52;11.50;;;;;;;9.43;84.25;101565.22;5052408;28;20020;-79
2020/12/16 09:54:50;;;;;;;17.85;10.70;;;;;;;9.53;84.28;101565.81;5045044;28;20024;-80
2020/12/16 09:57:19;;;;;;;17.80;11.40;;;;;;;9.65;83.98;101568.13;5036538;28;20047;-80
2020/12/16 09:59:45;;;;;;;15.13;10.05;;;;;;;10.32;80.88;101566.09;5048980;28;20032;-81
2020/12/16 10:02:10;;;;;;;15.88;10.40;;;;;;;9.82;83.01;101564.97;5051466;28;20510;-80
2020/12/16 10:04:35;;;;;;;15.90;10.52;;;;;;;9.98;82.76;101555.69;5048657;28;20052;-80
2020/12/16 10:07:00;;;;;;;13.95;9.10;;;;;;;9.79;84.16;101565.09;5050159;28;20021;-80
2020/12/16 10:09:26;;;;;;;15.35;9.80;;;;;;;9.59;84.37;101565.69;5048065;28;20063;-80
2020/12/16 10:11:51;;;;;;;13.70;9.88;;;;;;;9.91;84.09;101553.28;5045743;28;20029;-80
2020/12/16 10:14:17;;;;;;;15.88;8.48;;;;;;;9.57;85.76;101549.88;5051040;28;20032;-79
2020/12/16 10:16:47;;;;;;;16.25;8.20;;;;;;;9.58;84.88;101545.44;5051322;28;20506;-79
2020/12/16 10:19:14;;;;;;;13.05;8.25;;;;;;;9.72;86.52;101545.06;5055339;28;20020;-80
2020/12/16 10:21:40;;;;;;;15.02;8.50;;;;;;;9.90;85.06;101549.78;5056653;28;20129;-80
2020/12/16 10:24:06;;;;;;;14.48;8.27;;;;;;;10.18;83.33;101539.22;5056256;28;20115;-80
2020/12/16 10:26:31;;;;;;;10.38;7.38;;;;;;;9.66;85.35;101532.91;5052211;28;20033;-80
2020/12/16 10:28:56;;;;;;;10.30;7.18;;;;;;;10.00;84.79;101527.47;5054662;28;20024;-81
2020/12/16 10:31:22;;;;;;;12.25;7.15;;;;;;;9.71;85.82;101528.34;5056808;28;20037;-80
2020/12/16 10:33:47;;;;;;;10.13;7.45;;;;;;;9.86;85.52;101519.09;5048374;28;20025;-81
2020/12/16 10:36:12;;;;;;;14.75;7.43;;;;;;;10.06;84.09;101527.28;5040922;28;20041;-81
2020/12/16 10:38:37;;;;;;;10.32;7.70;;;;;;;10.44;83.39;101521.69;5043024;28;20428;-80
2020/12/16 10:41:03;;;;;;;11.23;6.30;;;;;;;10.22;82.83;101525.00;5053325;28;20064;-80
2020/12/16 10:43:28;;;;;;;13.13;6.65;;;;;;;10.32;83.25;101515.03;5056940;28;20468;-80
2020/12/16 10:45:53;;;;;;;13.57;7.28;;;;;;;10.75;81.93;101518.91;5059720;28;20049;-81
2020/12/16 10:48:18;;;;;;;8.95;6.28;;;;;;;11.32;80.57;101512.44;5057530;28;20431;-81
2020/12/16 10:50:44;;;;;;;9.13;6.35;;;;;;;11.33;79.47;101511.53;5055696;28;20061;-80
2020/12/16 10:53:09;;;;;;;11.13;6.30;;;;;;;11.62;78.60;101505.16;5058182;28;20082;-80
2020/12/16 10:55:34;;;;;;;10.52;5.90;;;;;;;11.87;77.78;101511.25;5037923;28;20485;-80
2020/12/16 10:58:00;;;;;;;10.10;6.63;;;;;;;11.59;78.44;101506.09;5049907;28;20039;-80
2020/12/16 11:00:25;;;;;;;8.65;6.55;;;;;;;11.85;78.04;101494.56;5059229;28;20029;-81
2020/12/16 11:02:50;;;;;;;8.10;5.55;;;;;;;11.56;78.14;101486.84;5055599;28;20037;-81
2020/12/16 11:05:16;;;;;;;8.52;6.05;;;;;;;11.42;79.22;101484.72;5048362;28;20031;-80
2020/12/16 11:07:41;;;;;;;8.02;5.68;;;;;;;11.32;78.90;101478.03;5049244;28;20029;-82
2020/12/16 11:10:06;;;;;;;9.30;6.70;;;;;;;11.66;78.18;101470.56;5053083;28;20032;-80
2020/12/16 11:12:31;;;;;;;7.57;5.50;;;;;;;11.61;78.23;101463.72;5053933;28;20078;-80
2020/12/16 11:14:57;;;;;;;8.40;5.90;;;;;;;11.19;79.26;101466.19;5046694;28;20498;-79